Time;durP1;ratioP1;P1;durP2;ratioP2;P2;SDS_P1;SDS_P2;PMS_P1;PMS_P2;Temp;Humidity;BMP_temperature;BMP_pressure;BME280_temperature;BME280_humidity;BME280_pressure;Samples;Min_cycle;Max_cycle;Signal;HPM_P1;HPM_P2
2022/01/29 08:07:38;;;;;;;30.33;14.80;;;;;;;3.63;100.00;98305.88;4478457;31;60289;-78
2022/01/29 08:10:05;;;;;;;36.38;14.55;;;;;;;3.77;100.00;98298.19;4205560;32;40591;-79
2022/01/29 08:12:30;;;;;;;38.30;14.70;;;;;;;3.73;100.00;98292.56;4080662;33;20111;-78
2022/01/29 08:14:56;;;;;;;33.50;14.52;;;;;;;3.81;100.00;98291.28;4020923;35;20737;-79
2022/01/29 08:17:21;;;;;;;30.45;13.27;;;;;;;3.87;100.00;98281.44;4025716;35;20078;-79
2022/01/29 08:19:48;;;;;;;31.05;12.65;;;;;;;3.83;100.00;98281.13;4037403;35;20069;-78
2022/01/29 08:22:14;;;;;;;27.83;13.07;;;;;;;3.92;100.00;98276.13;4036072;35;20081;-78
2022/01/29 08:24:39;;;;;;;28.55;12.70;;;;;;;3.87;100.00;98282.25;4030154;35;20575;-79
2022/01/29 08:27:05;;;;;;;25.02;11.43;;;;;;;3.86;100.00;98274.44;4040385;35;20070;-78
2022/01/29 08:29:30;;;;;;;26.73;12.05;;;;;;;4.21;100.00;98269.34;4055554;35;20097;-81
2022/01/29 08:31:56;;;;;;;21.75;10.55;;;;;;;4.12;100.00;98247.59;4066361;34;20058;-82
2022/01/29 08:34:24;;;;;;;22.70;10.88;;;;;;;4.27;100.00;98257.59;4058374;35;20155;-82
2022/01/29 08:36:50;;;;;;;19.80;10.02;;;;;;;4.28;100.00;98241.25;4044125;35;20138;-81
2022/01/29 08:39:15;;;;;;;22.15;10.38;;;;;;;4.26;100.00;98261.34;4057693;35;20073;-80
2022/01/29 08:41:40;;;;;;;24.67;10.18;;;;;;;4.23;100.00;98246.56;4055013;35;20062;-79
2022/01/29 08:44:06;;;;;;;21.52;9.68;;;;;;;4.20;100.00;98235.59;4043501;35;20078;-81
2022/01/29 08:46:31;;;;;;;20.50;10.02;;;;;;;4.15;100.00;98233.69;4054941;35;20066;-79
2022/01/29 08:48:56;;;;;;;20.38;9.85;;;;;;;4.22;100.00;98239.63;4044235;35;20528;-78
2022/01/29 08:51:22;;;;;;;18.83;9.65;;;;;;;4.18;100.00;98243.09;4031349;35;20158;-78
2022/01/29 08:53:47;;;;;;;20.58;10.02;;;;;;;4.15;100.00;98235.56;4037345;35;20641;-79
2022/01/29 08:56:15;;;;;;;18.88;8.35;;;;;;;4.02;100.00;98228.78;4025083;35;20078;-78
2022/01/29 08:58:41;;;;;;;18.38;8.75;;;;;;;4.09;100.00;98217.84;4036296;35;20074;-77
2022/01/29 09:01:07;;;;;;;20.70;10.02;;;;;;;4.03;100.00;98219.66;4026355;35;20077;-79
2022/01/29 09:03:33;;;;;;;16.35;8.18;;;;;;;4.10;100.00;98224.81;4029133;35;20074;-78
2022/01/29 09:06:00;;;;;;;19.55;9.27;;;;;;;4.15;100.00;98217.63;4042462;35;20787;-78
2022/01/29 09:08:26;;;;;;;20.38;8.90;;;;;;;4.12;100.00;98218.13;4048686;34;20458;-79
2022/01/29 09:10:56;;;;;;;22.48;10.20;;;;;;;4.10;100.00;98219.47;4191570;32;37700;-79
2022/01/29 09:13:21;;;;;;;17.35;8.02;;;;;;;4.22;100.00;98212.81;4341130;32;20065;-78
2022/01/29 09:15:47;;;;;;;21.02;9.82;;;;;;;4.32;100.00;98212.06;4399730;32;20121;-78
2022/01/29 09:18:27;;;;;;;16.88;8.70;;;;;;;4.36;100.00;98213.97;4417058;32;20126;-79
2022/01/29 09:21:08;;;;;;;21.48;9.40;;;;;;;4.35;100.00;98203.50;4411007;32;20093;-80
2022/01/29 09:23:55;;;;;;;19.02;9.07;;;;;;;4.40;100.00;98206.22;4411222;32;20057;-78
2022/01/29 09:26:36;;;;;;;21.70;9.35;;;;;;;4.43;100.00;98204.88;4410036;32;20925;-78
2022/01/29 09:29:16;;;;;;;17.13;8.90;;;;;;;4.52;100.00;98212.16;4434023;32;20073;-79
2022/01/29 09:31:57;;;;;;;15.65;8.80;;;;;;;4.51;100.00;98215.94;4424280;32;20069;-79
2022/01/29 09:34:38;;;;;;;18.05;8.75;;;;;;;4.55;100.00;98198.22;4422360;32;20556;-78
2022/01/29 09:37:19;;;;;;;19.70;9.15;;;;;;;4.57;100.00;98198.78;4422103;32;20524;-78
2022/01/29 09:39:59;;;;;;;21.13;9.75;;;;;;;4.62;100.00;98201.47;4421739;32;20076;-79
2022/01/29 09:42:40;;;;;;;18.25;8.75;;;;;;;4.57;100.00;98190.72;4421143;32;20069;-79
2022/01/29 09:45:23;;;;;;;17.52;9.13;;;;;;;4.64;100.00;98199.34;4429632;32;20065;-79
2022/01/29 09:48:04;;;;;;;17.17;8.82;;;;;;;4.71;100.00;98191.88;4419952;32;20072;-79
2022/01/29 09:50:45;;;;;;;20.75;9.73;;;;;;;4.76;100.00;98175.78;4435266;32;20065;-80
2022/01/29 09:53:26;;;;;;;18.00;9.23;;;;;;;4.74;100.00;98179.81;4428080;32;20063;-79
2022/01/29 09:56:07;;;;;;;20.92;9.90;;;;;;;4.90;100.00;98182.25;4430095;32;20069;-78
2022/01/29 09:58:47;;;;;;;17.95;9.27;;;;;;;4.78;100.00;98187.06;4425729;32;20703;-78
2022/01/29 10:01:28;;;;;;;21.60;9.25;;;;;;;4.73;100.00;98170.13;4424903;32;20073;-79
2022/01/29 10:04:09;;;;;;;19.02;9.60;;;;;;;4.77;100.00;98177.41;4418817;32;20054;-78
2022/01/29 10:07:19;;;;;;;19.13;9.52;;;;;;;4.96;100.00;98173.16;4417519;32;20536;-78
2022/01/29 10:10:03;;;;;;;18.67;10.30;;;;;;;4.96;100.00;98183.88;4440016;31;20206;-79
2022/01/29 10:12:32;;;;;;;17.83;9.45;;;;;;;4.96;100.00;98175.84;4546786;31;20064;-79
2022/01/29 10:15:03;;;;;;;18.15;9.13;;;;;;;5.01;100.00;98164.28;4613101;30;20434;-78
2022/01/29 10:17:46;;;;;;;21.23;9.98;;;;;;;5.01;100.00;98167.78;4597085;31;20068;-79
2022/01/29 10:20:14;;;;;;;21.33;9.73;;;;;;;5.13;100.00;98172.09;4601399;31;20064;-78
2022/01/29 10:22:44;;;;;;;19.20;10.18;;;;;;;5.13;100.00;98151.47;4599460;31;20056;-79
2022/01/29 10:25:14;;;;;;;20.50;9.50;;;;;;;5.14;100.00;98150.38;4597989;31;20064;-78
2022/01/29 10:28:11;;;;;;;18.33;9.63;;;;;;;5.11;100.00;98155.47;4592820;31;20059;-78
2022/01/29 10:30:50;;;;;;;20.65;9.68;;;;;;;5.33;100.00;98142.59;4594513;31;20166;-78
2022/01/29 10:33:34;;;;;;;19.70;9.18;;;;;;;5.26;100.00;98137.50;4608998;31;20060;-79
2022/01/29 10:36:04;;;;;;;17.90;9.40;;;;;;;5.34;100.00;98145.00;4598878;31;20086;-79
2022/01/29 10:38:39;;;;;;;19.35;8.23;;;;;;;5.28;100.00;98158.69;4597903;31;20086;-79
2022/01/29 10:41:25;;;;;;;20.35;9.35;;;;;;;5.26;100.00;98150.13;4594751;31;20075;-79
2022/01/29 10:46:54;;;;;;;16.10;8.35;;;;;;;5.29;100.00;98144.22;4594397;31;20808;-78
2022/01/29 10:49:29;;;;;;;20.80;9.23;;;;;;;5.31;100.00;98129.47;4593664;31;20104;-78
2022/01/29 10:52:13;;;;;;;17.58;8.60;;;;;;;5.34;100.00;98146.91;4594093;31;20590;-78
2022/01/29 10:54:42;;;;;;;16.30;8.18;;;;;;;5.27;100.00;98131.03;4590554;31;20064;-77
2022/01/29 10:57:11;;;;;;;15.27;8.27;;;;;;;5.25;100.00;98135.88;4590885;31;20131;-79
2022/01/29 10:59:46;;;;;;;20.27;8.55;;;;;;;5.21;100.00;98148.25;4591055;31;20060;-77
2022/01/29 11:02:13;;;;;;;19.27;8.80;;;;;;;5.18;100.00;98132.66;4591468;31;20064;-78
2022/01/29 11:04:42;;;;;;;17.55;8.60;;;;;;;5.24;100.00;98131.59;4592168;31;20060;-80
2022/01/29 11:09:51;;;;;;;16.92;7.90;;;;;;;5.32;100.00;98116.81;5082218;27;20397;-79
2022/01/29 11:12:19;;;;;;;17.90;8.63;;;;;;;5.32;100.00;98100.72;5075187;28;20503;-78
2022/01/29 11:14:47;;;;;;;17.75;8.02;;;;;;;5.50;100.00;98092.91;5072239;28;20075;-79
2022/01/29 11:17:16;;;;;;;13.80;7.30;;;;;;;5.42;100.00;98090.00;5073307;28;20106;-78
2022/01/29 11:19:43;;;;;;;14.77;7.22;;;;;;;5.43;100.00;98099.63;5064177;28;20045;-79
2022/01/29 11:22:12;;;;;;;15.80;6.82;;;;;;;5.45;100.00;98071.44;5062013;28;20496;-77
2022/01/29 11:24:41;;;;;;;11.82;6.65;;;;;;;5.50;100.00;98063.38;5063323;28;20080;-79
2022/01/29 11:27:23;;;;;;;12.77;6.63;;;;;;;5.61;100.00;98064.16;5069829;28;20528;-78
2022/01/29 11:30:08;;;;;;;12.77;5.90;;;;;;;5.62;100.00;98060.41;5069585;28;20049;-79
2022/01/29 11:32:45;;;;;;;13.43;6.67;;;;;;;5.72;100.00;98062.25;5084227;28;20527;-78
2022/01/29 11:35:31;;;;;;;13.38;6.35;;;;;;;5.72;100.00;98056.88;5084727;28;20193;-80
2022/01/29 11:38:06;;;;;;;13.10;5.72;;;;;;;5.88;100.00;98043.19;5085335;28;20056;-78
2022/01/29 11:40:38;;;;;;;10.85;5.00;;;;;;;5.78;100.00;98042.38;5084659;28;20056;-79
2022/01/29 11:43:06;;;;;;;9.32;5.43;;;;;;;5.96;100.00;98042.59;5081909;28;20118;-80
2022/01/29 11:45:45;;;;;;;8.75;4.97;;;;;;;5.81;100.00;98034.56;5072513;28;20102;-78
2022/01/29 11:48:24;;;;;;;9.02;4.45;;;;;;;5.90;100.00;98026.78;5075809;28;20084;-79
2022/01/29 11:50:54;;;;;;;7.93;4.15;;;;;;;5.85;100.00;98018.72;5076249;28;20056;-79
2022/01/29 11:53:23;;;;;;;7.88;3.90;;;;;;;6.01;100.00;98020.28;5082355;28;20038;-80
2022/01/29 11:55:52;;;;;;;8.45;4.30;;;;;;;5.89;100.00;98017.09;5088605;28;20059;-79
2022/01/29 11:58:27;;;;;;;7.57;3.92;;;;;;;5.93;100.00;98024.34;5087037;28;20040;-78
2022/01/29 12:01:01;;;;;;;6.57;3.42;;;;;;;5.99;100.00;98015.16;5076127;28;20527;-79
2022/01/29 12:03:43;;;;;;;7.28;3.30;;;;;;;6.21;100.00;98002.16;5074726;28;20515;-79
2022/01/29 12:08:57;;;;;;;6.20;3.30;;;;;;;6.27;100.00;97992.19;5071479;28;20048;-78
2022/01/29 12:11:25;;;;;;;6.70;3.42;;;;;;;6.07;100.00;97985.03;5077500;28;20048;-78
2022/01/29 12:14:13;;;;;;;6.28;2.90;;;;;;;6.02;100.00;97978.88;5080112;28;20081;-80
2022/01/29 12:16:57;;;;;;;6.80;3.10;;;;;;;5.99;100.00;97952.56;5076946;28;20056;-79
2022/01/29 12:19:43;;;;;;;6.65;3.30;;;;;;;6.07;100.00;97962.72;5073909;28;20049;-79
2022/01/29 12:22:15;;;;;;;5.85;2.60;;;;;;;6.12;100.00;97947.38;5067541;28;20045;-80
2022/01/29 12:24:48;;;;;;;5.32;2.90;;;;;;;6.28;100.00;97950.78;5052575;28;20416;-79
2022/01/29 12:27:15;;;;;;;4.03;2.42;;;;;;;6.32;100.00;97948.34;5046666;28;20056;-80
2022/01/29 12:29:42;;;;;;;4.13;2.20;;;;;;;6.39;100.00;97951.50;5052746;28;20105;-80
2022/01/29 12:32:10;;;;;;;4.40;2.42;;;;;;;6.27;100.00;97943.81;5055791;28;20126;-82
2022/01/29 12:34:52;;;;;;;4.18;2.40;;;;;;;6.19;100.00;97939.03;5075590;28;20785;-78
2022/01/29 12:37:19;;;;;;;3.10;1.80;;;;;;;6.27;100.00;97935.75;5069132;28;20052;-79
2022/01/29 12:39:50;;;;;;;4.18;2.30;;;;;;;6.25;100.00;97943.25;5069367;28;20075;-80
2022/01/29 12:44:58;;;;;;;3.58;2.00;;;;;;;6.25;100.00;97930.63;5069393;28;20052;-78
2022/01/29 12:47:27;;;;;;;2.83;1.63;;;;;;;6.18;100.00;97929.34;5070798;28;20060;-79
2022/01/29 12:49:54;;;;;;;2.63;1.60;;;;;;;6.33;100.00;97931.91;5069712;28;20396;-78
2022/01/29 12:52:22;;;;;;;2.88;1.70;;;;;;;6.21;100.00;97936.84;5071067;28;20052;-79
2022/01/29 12:54:59;;;;;;;3.25;1.70;;;;;;;6.37;100.00;97938.34;5070410;28;20060;-79
2022/01/29 12:57:46;;;;;;;3.20;1.50;;;;;;;6.30;100.00;97931.69;5069968;28;20106;-77
2022/01/29 13:00:18;;;;;;;2.45;1.40;;;;;;;6.33;100.00;97929.22;5067304;28;20052;-78
2022/01/29 13:02:46;;;;;;;2.08;1.20;;;;;;;6.34;100.00;97927.34;5068466;28;20067;-79
2022/01/29 13:05:13;;;;;;;2.22;1.40;;;;;;;6.22;100.00;97915.06;5052903;28;20127;-78
2022/01/29 13:07:40;;;;;;;3.03;1.20;;;;;;;6.31;100.00;97923.34;5050822;28;20056;-78
2022/01/29 13:10:09;;;;;;;3.15;1.60;;;;;;;6.27;100.00;97925.75;5052638;28;20108;-79
2022/01/29 13:12:43;;;;;;;2.38;1.50;;;;;;;6.16;100.00;97923.44;5051271;28;20629;-80
2022/01/29 13:15:11;;;;;;;2.92;1.60;;;;;;;6.18;100.00;97910.53;5051701;28;20049;-79
2022/01/29 13:17:44;;;;;;;3.55;1.63;;;;;;;6.29;100.00;97904.00;5051891;28;20057;-80
2022/01/29 13:20:12;;;;;;;3.22;1.60;;;;;;;6.23;100.00;97894.34;5054508;28;20061;-79
2022/01/29 13:22:41;;;;;;;4.03;2.10;;;;;;;6.24;100.00;97898.66;5057278;28;20105;-80
2022/01/29 13:25:10;;;;;;;1.77;1.20;;;;;;;6.15;100.00;97889.56;5049215;28;20447;-77
2022/01/29 13:27:38;;;;;;;2.70;1.55;;;;;;;6.30;100.00;97888.69;5050720;28;20449;-78
2022/01/29 13:30:18;;;;;;;6.13;1.95;;;;;;;6.10;100.00;97854.66;5052082;28;20455;-79
2022/01/29 13:32:50;;;;;;;3.05;1.70;;;;;;;6.30;100.00;97859.88;5049087;28;20562;-79
2022/01/29 13:35:23;;;;;;;4.78;1.80;;;;;;;6.13;100.00;97863.00;5052777;28;20504;-79
2022/01/29 13:37:56;;;;;;;2.83;1.83;;;;;;;6.17;100.00;97847.88;5051826;28;20053;-78
2022/01/29 13:40:33;;;;;;;3.20;1.70;;;;;;;6.07;100.00;97852.53;5049914;28;20067;-77
2022/01/29 13:43:01;;;;;;;2.55;1.80;;;;;;;6.29;100.00;97855.59;5050379;28;20053;-79
2022/01/29 13:45:31;;;;;;;3.85;2.38;;;;;;;6.07;100.00;97845.28;5051036;28;20049;-78
2022/01/29 13:47:59;;;;;;;3.25;1.83;;;;;;;6.08;100.00;97836.16;5051379;28;20056;-78
2022/01/29 13:50:34;;;;;;;3.90;1.75;;;;;;;6.07;100.00;97844.47;5061485;28;20071;-77
2022/01/29 13:53:05;;;;;;;3.97;2.70;;;;;;;6.03;100.00;97851.50;5060010;28;20164;-78
2022/01/29 13:55:33;;;;;;;4.97;2.30;;;;;;;6.03;100.00;97841.56;5057514;28;20083;-81
2022/01/29 13:58:08;;;;;;;4.18;2.28;;;;;;;6.11;100.00;97837.47;5056144;28;20102;-79
2022/01/29 14:00:55;;;;;;;4.43;2.53;;;;;;;6.01;100.00;97838.34;5052956;28;20762;-80
2022/01/29 14:03:49;;;;;;;4.53;2.35;;;;;;;5.90;100.00;97828.75;5038141;28;20080;-80
2022/01/29 14:06:19;;;;;;;6.57;3.20;;;;;;;5.92;100.00;97839.22;5054898;28;20045;-79
2022/01/29 14:08:47;;;;;;;3.83;2.50;;;;;;;5.96;100.00;97814.19;5049543;28;20045;-78
2022/01/29 14:11:16;;;;;;;5.35;2.88;;;;;;;5.85;100.00;97812.69;5060175;28;20056;-79
2022/01/29 14:13:42;;;;;;;3.40;2.42;;;;;;;5.87;100.00;97821.25;5060619;28;20539;-80
2022/01/29 14:16:09;;;;;;;5.93;3.20;;;;;;;5.90;100.00;97836.00;5049038;28;20527;-79
2022/01/29 14:18:36;;;;;;;4.45;2.88;;;;;;;5.87;100.00;97837.38;5048925;28;20045;-79
2022/01/29 14:21:03;;;;;;;4.50;2.90;;;;;;;5.91;100.00;97845.69;5046288;28;20082;-79
2022/01/29 14:23:29;;;;;;;5.57;3.00;;;;;;;5.87;100.00;97845.44;5045550;28;20053;-78
2022/01/29 14:26:15;;;;;;;3.92;2.60;;;;;;;5.93;100.00;97852.38;5045699;28;20352;-78
2022/01/29 14:28:42;;;;;;;3.97;2.65;;;;;;;5.98;100.00;97848.84;5031718;28;20053;-79
2022/01/29 14:31:08;;;;;;;4.18;2.78;;;;;;;5.86;100.00;97843.81;5030272;28;20053;-78
2022/01/29 14:33:35;;;;;;;5.75;3.28;;;;;;;5.87;100.00;97837.38;5037579;28;20049;-78
2022/01/29 14:36:01;;;;;;;7.85;3.92;;;;;;;5.79;100.00;97797.63;5059984;28;20053;-81
2022/01/29 14:38:28;;;;;;;5.93;3.30;;;;;;;5.91;100.00;97800.03;5066007;28;20135;-79
2022/01/29 14:40:55;;;;;;;4.95;2.85;;;;;;;5.88;100.00;97800.56;5049791;28;20053;-78
2022/01/29 14:43:21;;;;;;;4.55;3.00;;;;;;;6.00;100.00;97787.56;5050346;28;20053;-79
2022/01/29 14:45:48;;;;;;;4.20;2.45;;;;;;;6.02;100.00;97794.25;5048350;28;20065;-77
2022/01/29 14:48:14;;;;;;;3.97;2.60;;;;;;;6.09;100.00;97794.75;5047430;28;20061;-78
2022/01/29 14:50:44;;;;;;;4.70;2.65;;;;;;;5.95;100.00;97788.41;5048764;28;20053;-79
2022/01/29 14:53:10;;;;;;;4.13;2.55;;;;;;;5.82;100.00;97786.34;5048811;28;20053;-78
2022/01/29 14:55:37;;;;;;;4.57;2.60;;;;;;;5.81;100.00;97783.94;5046964;28;20064;-79
2022/01/29 14:58:03;;;;;;;6.20;2.95;;;;;;;5.82;100.00;97786.34;5047623;28;20053;-78
2022/01/29 15:00:30;;;;;;;6.63;3.13;;;;;;;5.85;100.00;97795.75;5048873;28;20554;-79
2022/01/29 15:02:57;;;;;;;4.05;2.72;;;;;;;5.81;100.00;97800.06;5049762;28;20115;-79
2022/01/29 15:05:24;;;;;;;4.75;2.60;;;;;;;5.91;100.00;97778.53;5049001;28;20072;-80
2022/01/29 15:07:50;;;;;;;5.88;2.65;;;;;;;5.76;100.00;97776.72;5057744;28;20087;-80
2022/01/29 15:10:20;;;;;;;4.53;2.70;;;;;;;5.83;100.00;97779.09;5058439;28;20045;-79
2022/01/29 15:12:47;;;;;;;6.65;2.97;;;;;;;5.90;100.00;97777.72;5059657;28;20156;-79
2022/01/29 15:15:14;;;;;;;4.93;2.83;;;;;;;5.75;100.00;97768.94;5065622;28;20059;-80
2022/01/29 15:17:41;;;;;;;4.32;2.70;;;;;;;5.77;100.00;97762.22;5076085;28;20121;-79
2022/01/29 15:20:28;;;;;;;5.07;2.80;;;;;;;5.66;100.00;97761.47;5072111;28;20345;-79
2022/01/29 15:22:54;;;;;;;7.15;3.38;;;;;;;5.64;100.00;97738.66;5059944;28;20049;-78
2022/01/29 15:25:21;;;;;;;5.00;3.00;;;;;;;5.63;100.00;97729.00;5060440;28;20056;-78
2022/01/29 15:27:47;;;;;;;5.18;3.15;;;;;;;5.66;100.00;97736.50;5059180;28;20052;-79
2022/01/29 15:30:14;;;;;;;4.72;3.10;;;;;;;5.72;100.00;97713.91;5058487;28;20202;-79
2022/01/29 15:32:45;;;;;;;6.18;2.80;;;;;;;5.63;100.00;97707.50;5051882;28;20060;-80
2022/01/29 15:35:12;;;;;;;5.20;3.08;;;;;;;5.68;100.00;97686.00;5059198;28;20041;-79
2022/01/29 15:37:40;;;;;;;8.30;3.60;;;;;;;5.68;100.00;97710.97;5065040;28;20056;-79
2022/01/29 15:40:07;;;;;;;7.20;3.20;;;;;;;5.75;100.00;97699.09;5061383;28;20063;-79
2022/01/29 15:42:37;;;;;;;4.72;2.78;;;;;;;5.75;100.00;97701.78;5055441;28;20132;-79
2022/01/29 15:45:04;;;;;;;5.28;3.40;;;;;;;5.87;100.00;97702.25;5054222;28;20075;-79
2022/01/29 15:47:31;;;;;;;5.47;2.88;;;;;;;5.88;100.00;97699.28;5059757;28;20105;-77
2022/01/29 15:49:58;;;;;;;6.60;3.13;;;;;;;5.87;100.00;97691.50;5060227;28;20615;-79
2022/01/29 15:52:24;;;;;;;6.38;2.80;;;;;;;5.85;100.00;97685.63;5051635;28;20041;-80
2022/01/29 15:54:52;;;;;;;6.10;2.85;;;;;;;5.82;100.00;97678.88;5067567;28;20041;-79
2022/01/29 15:57:19;;;;;;;3.88;2.70;;;;;;;5.91;100.00;97703.31;5060413;28;20090;-79
2022/01/29 15:59:46;;;;;;;4.82;3.05;;;;;;;5.86;100.00;97684.53;5060834;28;20048;-79
2022/01/29 16:02:19;;;;;;;4.20;2.65;;;;;;;5.91;100.00;97711.38;5064776;28;20105;-79
2022/01/29 16:04:50;;;;;;;3.85;2.50;;;;;;;6.01;100.00;97700.50;5063071;28;20080;-79
2022/01/29 16:07:17;;;;;;;3.58;2.45;;;;;;;6.05;100.00;97704.22;5056848;28;20513;-80
2022/01/29 16:09:44;;;;;;;4.75;2.05;;;;;;;6.01;100.00;97687.09;5058912;28;20044;-78
2022/01/29 16:12:12;;;;;;;3.55;2.20;;;;;;;6.21;100.00;97711.06;5057877;28;20048;-79
2022/01/29 16:14:42;;;;;;;4.13;2.25;;;;;;;6.19;100.00;97681.75;5060452;28;20049;-79
2022/01/29 16:17:10;;;;;;;6.03;3.00;;;;;;;6.12;100.00;97683.19;5070589;28;20060;-81
2022/01/29 16:19:36;;;;;;;3.78;2.20;;;;;;;6.14;100.00;97649.56;5065898;28;20048;-80
2022/01/29 16:22:03;;;;;;;2.70;1.90;;;;;;;6.10;100.00;97659.28;5069502;28;20036;-79
2022/01/29 16:24:29;;;;;;;3.63;2.08;;;;;;;6.06;100.00;97666.34;5060133;28;20045;-80
2022/01/29 16:26:56;;;;;;;5.15;2.17;;;;;;;6.12;100.00;97665.19;5054341;28;20103;-77
2022/01/29 16:29:24;;;;;;;3.38;2.17;;;;;;;6.21;100.00;97686.88;5054623;28;20138;-80
2022/01/29 16:31:50;;;;;;;3.75;1.80;;;;;;;6.15;100.00;97688.00;5052468;28;20508;-78
2022/01/29 16:34:17;;;;;;;2.50;1.75;;;;;;;6.22;100.00;97666.94;5052796;28;20482;-79
2022/01/29 16:36:43;;;;;;;3.55;1.88;;;;;;;6.17;100.00;97667.81;5055022;28;20278;-80
2022/01/29 16:39:10;;;;;;;3.45;1.73;;;;;;;6.24;100.00;97664.78;5058484;28;20401;-78
2022/01/29 16:41:37;;;;;;;1.75;1.25;;;;;;;6.20;100.00;97667.25;5068186;28;20064;-79
2022/01/29 16:44:03;;;;;;;2.58;1.50;;;;;;;6.24;100.00;97645.97;5066797;28;20064;-79
2022/01/29 16:46:31;;;;;;;2.17;1.40;;;;;;;6.25;100.00;97669.06;5051849;28;20056;-79
2022/01/29 16:48:58;;;;;;;2.72;1.60;;;;;;;6.27;100.00;97678.44;5040937;28;20049;-79
2022/01/29 16:51:25;;;;;;;3.22;1.70;;;;;;;6.30;100.00;97671.69;5054269;28;20106;-77
2022/01/29 16:53:51;;;;;;;2.17;1.50;;;;;;;6.22;100.00;97654.31;5063884;28;20736;-79
2022/01/29 16:56:18;;;;;;;4.07;1.40;;;;;;;6.32;100.00;97658.00;5056009;28;20079;-78
2022/01/29 16:58:45;;;;;;;2.30;1.58;;;;;;;6.30;100.00;97652.09;5061003;28;20598;-79
2022/01/29 17:01:11;;;;;;;2.05;1.50;;;;;;;6.43;100.00;97643.31;5055571;28;20480;-79
2022/01/29 17:03:37;;;;;;;2.20;1.30;;;;;;;6.47;100.00;97645.16;5053192;28;20041;-80
2022/01/29 17:06:04;;;;;;;1.60;1.10;;;;;;;6.38;100.00;97608.44;5057542;28;20053;-79
2022/01/29 17:08:52;;;;;;;1.98;1.33;;;;;;;6.49;100.00;97621.47;5053693;28;20512;-79
2022/01/29 17:11:18;;;;;;;2.10;1.20;;;;;;;6.42;100.00;97604.09;5052551;28;20743;-79
2022/01/29 17:13:45;;;;;;;2.38;1.20;;;;;;;6.39;100.00;97607.34;5048760;28;20118;-78
2022/01/29 17:16:13;;;;;;;2.53;1.23;;;;;;;6.46;100.00;97608.59;5046468;28;20872;-78
2022/01/29 17:18:41;;;;;;;3.17;1.58;;;;;;;6.41;100.00;97603.28;5045645;28;20387;-77
2022/01/29 17:21:08;;;;;;;3.47;1.40;;;;;;;6.47;100.00;97598.66;5028481;28;20049;-78
2022/01/29 17:23:35;;;;;;;3.35;1.42;;;;;;;6.35;100.00;97576.75;5046189;28;20069;-78
2022/01/29 17:26:03;;;;;;;2.88;1.52;;;;;;;6.36;100.00;97602.53;5052068;28;20122;-77
2022/01/29 17:28:30;;;;;;;2.60;1.60;;;;;;;6.37;100.00;97596.91;5046659;28;20057;-78
2022/01/29 17:30:57;;;;;;;2.00;1.40;;;;;;;6.36;100.00;97603.34;5062699;28;20466;-78
2022/01/29 17:33:25;;;;;;;2.28;1.33;;;;;;;6.26;100.00;97590.03;5052600;28;20094;-77
2022/01/29 17:35:54;;;;;;;1.95;1.33;;;;;;;6.32;100.00;97591.59;5043942;28;20053;-78
2022/01/29 17:38:21;;;;;;;3.47;1.60;;;;;;;6.40;100.00;97579.38;5057036;28;20060;-78
2022/01/29 17:40:48;;;;;;;4.07;1.50;;;;;;;6.39;100.00;97564.34;5066697;28;20052;-77
2022/01/29 17:43:15;;;;;;;4.47;1.70;;;;;;;6.40;100.00;97545.22;5064780;28;20129;-75
2022/01/29 17:45:42;;;;;;;18.30;4.85;;;;;;;6.50;100.00;97538.91;5054317;28;20052;-78
2022/01/29 17:48:09;;;;;;;5.13;2.05;;;;;;;6.51;100.00;97552.06;5066460;28;20055;-77
2022/01/29 17:50:35;;;;;;;3.63;1.70;;;;;;;6.53;100.00;97555.25;5067344;28;20040;-78
2022/01/29 17:53:02;;;;;;;2.78;1.52;;;;;;;6.59;100.00;97555.97;5065411;28;20155;-78
2022/01/29 17:55:36;;;;;;;4.10;2.00;;;;;;;6.63;100.00;97548.94;5065725;28;20535;-77
2022/01/29 17:58:05;;;;;;;2.20;1.55;;;;;;;6.70;100.00;97546.69;5054503;28;20056;-78
2022/01/29 18:00:32;;;;;;;2.55;1.75;;;;;;;6.67;100.00;97523.06;5043471;28;20049;-79
2022/01/29 18:03:01;;;;;;;2.80;1.70;;;;;;;6.74;100.00;97547.69;5025685;28;20167;-79
2022/01/29 18:05:28;;;;;;;2.17;1.70;;;;;;;6.67;100.00;97521.16;5043292;28;20656;-79
2022/01/29 18:07:54;;;;;;;3.05;1.65;;;;;;;6.74;100.00;97561.94;5045477;28;20057;-78
2022/01/29 18:10:21;;;;;;;2.78;1.83;;;;;;;6.69;100.00;97526.25;5046429;28;20493;-77
2022/01/29 18:12:48;;;;;;;3.20;1.80;;;;;;;6.69;100.00;97548.56;5045310;28;20415;-79
2022/01/29 18:15:14;;;;;;;2.70;1.50;;;;;;;6.68;100.00;97536.22;5035448;28;20065;-79
2022/01/29 18:17:41;;;;;;;2.28;1.50;;;;;;;6.72;100.00;97526.47;5024970;28;20072;-78
2022/01/29 18:20:09;;;;;;;2.53;1.67;;;;;;;6.74;100.00;97524.28;5027828;28;20068;-78
2022/01/29 18:22:40;;;;;;;2.88;1.83;;;;;;;6.70;100.00;97527.84;5026157;28;20057;-78
2022/01/29 18:25:07;;;;;;;2.45;1.70;;;;;;;6.71;100.00;97543.69;5027786;28;20115;-79
2022/01/29 18:27:34;;;;;;;2.50;1.65;;;;;;;6.47;100.00;97548.38;5026399;28;20076;-78
2022/01/29 18:30:00;;;;;;;2.17;1.65;;;;;;;6.52;100.00;97539.41;5024914;28;20052;-78
2022/01/29 18:32:27;;;;;;;3.28;1.88;;;;;;;6.33;100.00;97547.47;5025095;28;20107;-77
2022/01/29 18:34:54;;;;;;;2.42;1.90;;;;;;;6.32;100.00;97558.53;5027237;28;20776;-78
2022/01/29 18:37:21;;;;;;;3.03;1.98;;;;;;;6.21;100.00;97563.22;5033789;28;20121;-80
2022/01/29 18:39:55;;;;;;;2.92;2.00;;;;;;;6.17;100.00;97560.31;5052607;28;20045;-79
2022/01/29 18:42:42;;;;;;;2.30;1.80;;;;;;;6.22;100.00;97572.88;5047853;28;20045;-78
2022/01/29 18:45:11;;;;;;;6.43;1.67;;;;;;;6.43;100.00;97562.66;5026157;28;20053;-78
2022/01/29 18:47:38;;;;;;;5.28;1.90;;;;;;;6.35;100.00;97539.13;5024990;28;20049;-78
2022/01/29 18:50:05;;;;;;;2.15;1.30;;;;;;;6.58;100.00;97508.69;5028570;28;20049;-80
2022/01/29 18:52:32;;;;;;;2.45;1.45;;;;;;;6.77;100.00;97560.56;5027269;28;20100;-78
2022/01/29 18:54:59;;;;;;;3.50;1.23;;;;;;;6.86;100.00;97562.28;5025933;28;20050;-78
2022/01/29 18:57:25;;;;;;;1.92;1.30;;;;;;;6.86;100.00;97569.59;5024086;28;20142;-78
2022/01/29 18:59:52;;;;;;;1.65;1.20;;;;;;;6.75;100.00;97558.16;5025338;28;20103;-79
2022/01/29 19:02:18;;;;;;;2.10;1.23;;;;;;;6.85;100.00;97590.31;5027191;28;20060;-78
2022/01/29 19:04:45;;;;;;;1.35;1.20;;;;;;;6.70;100.00;97544.81;5043897;28;20689;-78
2022/01/29 19:07:11;;;;;;;2.08;1.30;;;;;;;6.72;100.00;97545.31;5063527;28;20048;-78
2022/01/29 19:09:38;;;;;;;3.35;1.63;;;;;;;6.67;100.00;97548.06;5066602;28;20053;-79
2022/01/29 19:12:06;;;;;;;1.60;1.08;;;;;;;6.63;100.00;97557.00;5068054;28;20056;-80
2022/01/29 19:14:32;;;;;;;1.77;1.10;;;;;;;6.60;100.00;97553.03;5066524;28;20052;-78
2022/01/29 19:17:00;;;;;;;2.75;1.77;;;;;;;6.74;100.00;97570.00;5066590;28;20093;-79
2022/01/29 19:19:28;;;;;;;3.15;1.75;;;;;;;6.62;100.00;97533.88;5069591;28;20122;-80
2022/01/29 19:21:56;;;;;;;2.40;1.60;;;;;;;6.57;100.00;97547.41;5073080;28;20052;-80
2022/01/29 19:24:23;;;;;;;2.30;1.63;;;;;;;6.58;100.00;97568.63;5075987;28;20059;-80
2022/01/29 19:26:49;;;;;;;1.92;1.30;;;;;;;6.63;100.00;97567.78;5074125;28;20767;-79
2022/01/29 19:29:16;;;;;;;2.63;1.35;;;;;;;6.58;100.00;97557.09;5072678;28;20498;-79
2022/01/29 19:31:42;;;;;;;2.08;1.30;;;;;;;6.51;100.00;97544.00;5077153;28;20056;-80
2022/01/29 19:34:10;;;;;;;1.52;1.27;;;;;;;6.60;100.00;97565.66;5068312;28;20053;-79
2022/01/29 19:36:37;;;;;;;2.72;1.63;;;;;;;6.51;100.00;97540.50;5056584;28;20049;-79
2022/01/29 19:39:04;;;;;;;1.38;1.20;;;;;;;6.51;100.00;97543.19;5057065;28;20124;-78
2022/01/29 19:41:30;;;;;;;2.30;1.30;;;;;;;6.55;100.00;97544.22;5055134;28;20048;-79
2022/01/29 19:43:57;;;;;;;1.98;1.27;;;;;;;6.61;100.00;97537.66;5049280;28;20056;-79
2022/01/29 19:46:26;;;;;;;3.65;1.70;;;;;;;6.70;100.00;97539.41;5042774;28;20151;-78
2022/01/29 19:48:53;;;;;;;1.83;1.50;;;;;;;6.60;100.00;97525.31;5050406;28;20116;-79
2022/01/29 19:51:23;;;;;;;2.30;1.30;;;;;;;6.70;100.00;97515.22;5071109;28;20503;-81
2022/01/29 19:53:51;;;;;;;2.40;1.20;;;;;;;6.77;100.00;97521.00;5079473;28;20148;-79
2022/01/29 19:56:18;;;;;;;1.35;1.02;;;;;;;6.78;100.00;97505.66;5065014;28;20770;-79
2022/01/29 19:58:52;;;;;;;1.90;1.30;;;;;;;6.82;100.00;97502.09;5065917;28;20530;-79
2022/01/29 20:01:18;;;;;;;1.48;1.10;;;;;;;6.78;100.00;97511.84;5052998;28;20046;-78